createdAt,value
2018-05-18T00:00:54.258Z,12.40
2018-05-18T00:03:21.750Z,12.30
2018-05-18T00:05:50.029Z,12.40
2018-05-18T00:08:17.496Z,12.40
2018-05-18T00:10:45.745Z,12.30
2018-05-18T00:13:13.210Z,12.30
2018-05-18T00:15:40.699Z,12.30
2018-05-18T00:18:08.166Z,12.20
2018-05-18T00:20:35.683Z,12.20
2018-05-18T00:23:03.938Z,12.20
2018-05-18T00:25:31.420Z,12.10
2018-05-18T00:27:58.895Z,12.10
2018-05-18T00:30:26.420Z,12.20
2018-05-18T00:32:55.405Z,12.20
2018-05-18T00:35:22.880Z,12.20
2018-05-18T00:37:51.855Z,12.20
2018-05-18T00:40:19.358Z,12.20
2018-05-18T00:42:47.698Z,12.20
2018-05-18T00:45:15.179Z,12.10
2018-05-18T00:47:42.732Z,12.10
2018-05-18T00:50:10.195Z,12.20
2018-05-18T00:52:38.460Z,12.10
2018-05-18T00:55:17.787Z,12.10
2018-05-18T00:57:46.051Z,12.20
2018-05-18T01:00:13.524Z,12.20
2018-05-18T01:02:41.796Z,12.20
2018-05-18T01:05:10.037Z,12.20
2018-05-18T01:07:37.522Z,12.20
2018-05-18T01:10:05.793Z,12.20
2018-05-18T01:12:33.271Z,12.10
2018-05-18T01:15:01.580Z,12.10
2018-05-18T01:17:29.100Z,12.10
2018-05-18T01:19:56.563Z,12.10
2018-05-18T01:22:24.840Z,12.00
2018-05-18T01:24:52.299Z,12.00
2018-05-18T01:27:20.557Z,12.10
2018-05-18T01:29:48.028Z,12.00
2018-05-18T01:32:17.016Z,11.90
2018-05-18T01:34:45.252Z,12.00
2018-05-18T01:37:12.735Z,12.00
2018-05-18T01:39:40.203Z,12.00
2018-05-18T01:42:08.480Z,12.00
2018-05-18T01:44:36.732Z,12.00
2018-05-18T01:47:04.217Z,12.00
2018-05-18T01:49:31.689Z,12.00
2018-05-18T01:51:59.956Z,12.00
2018-05-18T01:54:28.973Z,11.90
2018-05-18T01:56:57.204Z,11.90
2018-05-18T01:59:24.714Z,11.90
2018-05-18T02:01:52.313Z,11.80
2018-05-18T02:04:19.808Z,11.90
2018-05-18T02:06:48.067Z,11.90
2018-05-18T02:09:15.583Z,11.90
2018-05-18T02:11:43.072Z,11.90
2018-05-18T02:14:10.560Z,11.90
2018-05-18T02:16:38.826Z,11.60
2018-05-18T02:19:07.092Z,11.60
2018-05-18T02:21:34.559Z,11.50
2018-05-18T02:24:02.841Z,11.50
2018-05-18T02:26:31.089Z,11.60
2018-05-18T02:28:59.340Z,11.60
2018-05-18T02:31:26.847Z,11.60
2018-05-18T02:33:55.240Z,11.50
2018-05-18T02:36:23.485Z,11.60
2018-05-18T02:38:50.973Z,11.50
2018-05-18T02:41:18.460Z,11.60
2018-05-18T02:43:45.935Z,11.60
2018-05-18T02:46:13.426Z,11.70
2018-05-18T02:48:41.667Z,11.70
2018-05-18T02:51:09.147Z,11.60
2018-05-18T02:53:36.619Z,11.60
2018-05-18T02:56:04.882Z,11.40
2018-05-18T02:58:32.346Z,11.40
2018-05-18T03:01:00.593Z,11.40
2018-05-18T03:03:28.061Z,11.40
2018-05-18T03:05:55.943Z,11.40
2018-05-18T03:08:23.413Z,11.40
2018-05-18T03:10:51.657Z,11.30
2018-05-18T03:13:19.131Z,11.30
2018-05-18T03:15:46.622Z,11.20
2018-05-18T03:18:14.120Z,11.20
2018-05-18T03:20:41.691Z,11.10
2018-05-18T03:23:09.192Z,11.10
2018-05-18T03:25:36.687Z,11.20
2018-05-18T03:28:04.167Z,11.20
2018-05-18T03:30:33.144Z,11.20
2018-05-18T03:33:00.644Z,11.20
2018-05-18T03:35:28.879Z,11.20
2018-05-18T03:37:56.528Z,11.20
2018-05-18T03:40:24.001Z,11.20
2018-05-18T03:42:51.501Z,11.20
2018-05-18T03:45:18.978Z,11.40
2018-05-18T03:47:46.468Z,11.20
2018-05-18T03:50:13.980Z,11.30
2018-05-18T03:52:41.477Z,11.20
2018-05-18T03:55:09.003Z,11.30
2018-05-18T03:57:36.487Z,11.30
2018-05-18T04:00:03.958Z,11.30
2018-05-18T04:02:43.370Z,11.30
2018-05-18T04:05:22.756Z,11.30
2018-05-18T04:08:02.948Z,11.30
2018-05-18T04:10:30.431Z,11.30
2018-05-18T04:12:58.113Z,11.30
2018-05-18T04:15:25.596Z,11.30
2018-05-18T04:17:53.831Z,11.30
2018-05-18T04:20:21.325Z,11.30
2018-05-18T04:22:49.578Z,11.20
2018-05-18T04:25:17.136Z,11.20
2018-05-18T04:27:44.606Z,11.20
2018-05-18T04:30:12.864Z,11.20
2018-05-18T04:32:40.347Z,11.20
2018-05-18T04:35:08.588Z,11.20
2018-05-18T04:37:36.088Z,11.10
2018-05-18T04:40:04.343Z,11.10
2018-05-18T04:42:31.829Z,11.10
2018-05-18T04:45:00.269Z,11.10
2018-05-18T04:47:27.732Z,11.00
2018-05-18T04:49:55.243Z,11.10
2018-05-18T04:52:22.704Z,11.10
2018-05-18T04:54:50.178Z,11.10
2018-05-18T04:57:17.657Z,11.00
2018-05-18T04:59:45.118Z,11.10
2018-05-18T05:02:13.382Z,11.00
2018-05-18T05:04:40.835Z,11.00
2018-05-18T05:07:08.349Z,11.00
2018-05-18T05:09:36.548Z,10.90
2018-05-18T05:12:04.044Z,10.90
2018-05-18T05:14:31.515Z,10.90
2018-05-18T05:16:59.768Z,11.00
2018-05-18T05:19:27.245Z,11.00
2018-05-18T05:21:54.740Z,10.90
2018-05-18T05:24:22.283Z,11.00
2018-05-18T05:26:49.767Z,10.90
2018-05-18T05:29:17.243Z,11.00
2018-05-18T05:31:44.748Z,11.00
2018-05-18T05:34:13.001Z,11.10
2018-05-18T05:36:40.509Z,11.10
2018-05-18T05:39:08.005Z,11.10
2018-05-18T05:41:35.491Z,11.10
2018-05-18T05:44:04.025Z,11.10
2018-05-18T05:46:31.516Z,11.10
2018-05-18T05:48:59.045Z,11.00
2018-05-18T05:51:26.531Z,11.00
2018-05-18T05:53:54.787Z,10.90
2018-05-18T05:56:22.376Z,10.90
2018-05-18T05:58:49.851Z,11.00
2018-05-18T06:01:17.360Z,11.00
2018-05-18T06:03:44.855Z,11.10
2018-05-18T06:06:13.093Z,11.20
2018-05-18T06:08:40.567Z,11.20
2018-05-18T06:11:08.879Z,11.30
2018-05-18T06:13:37.131Z,11.20
2018-05-18T06:16:05.510Z,11.30
2018-05-18T06:18:34.673Z,11.30
2018-05-18T06:21:02.219Z,11.30
2018-05-18T06:23:29.713Z,11.30
2018-05-18T06:25:57.982Z,11.40
2018-05-18T06:28:25.519Z,11.40
2018-05-18T06:30:53.005Z,11.40
2018-05-18T06:33:20.526Z,11.60
2018-05-18T06:35:48.048Z,11.60
2018-05-18T06:38:15.548Z,11.70
2018-05-18T06:40:43.048Z,12.00
2018-05-18T06:43:11.334Z,12.10
2018-05-18T06:45:39.584Z,12.20
2018-05-18T06:48:07.962Z,12.20
2018-05-18T06:50:35.456Z,12.20
2018-05-18T06:53:03.029Z,12.10
2018-05-18T06:55:30.657Z,12.10
2018-05-18T06:57:58.920Z,12.10
2018-05-18T07:00:26.409Z,12.00
2018-05-18T07:02:54.648Z,12.00
2018-05-18T07:05:22.131Z,12.00
2018-05-18T07:07:50.436Z,11.90
2018-05-18T07:10:17.965Z,11.90
2018-05-18T07:12:46.221Z,11.80
2018-05-18T07:15:13.713Z,11.80
2018-05-18T07:17:41.214Z,12.10
2018-05-18T07:20:09.327Z,12.40
2018-05-18T07:22:37.568Z,12.90
2018-05-18T07:25:05.065Z,12.90
2018-05-18T07:27:33.305Z,13.10
2018-05-18T07:30:00.880Z,13.00
2018-05-18T07:32:28.553Z,13.00
2018-05-18T07:34:56.824Z,12.70
2018-05-18T07:37:24.312Z,12.70
2018-05-18T07:39:51.799Z,12.60
2018-05-18T07:42:19.285Z,12.60
2018-05-18T07:44:48.272Z,12.30
2018-05-18T07:47:16.556Z,12.50
2018-05-18T07:49:44.036Z,12.50
2018-05-18T07:52:12.303Z,12.90
2018-05-18T07:54:40.556Z,13.00
2018-05-18T07:57:09.733Z,13.00
2018-05-18T07:59:37.329Z,13.00
2018-05-18T08:02:04.721Z,12.80
2018-05-18T08:04:32.240Z,12.70
2018-05-18T08:07:00.640Z,12.50
2018-05-18T08:09:28.896Z,12.80
2018-05-18T08:11:57.171Z,12.90
2018-05-18T08:14:24.639Z,12.90
2018-05-18T08:16:53.118Z,13.40
2018-05-18T08:19:21.448Z,13.70
2018-05-18T08:21:48.952Z,13.70
2018-05-18T08:24:17.223Z,14.20
2018-05-18T08:26:51.273Z,14.10
2018-05-18T08:29:36.303Z,14.10
2018-05-18T08:32:03.784Z,14.30
2018-05-18T08:34:31.556Z,14.50
2018-05-18T08:36:59.033Z,14.70
2018-05-18T08:39:26.536Z,14.80
2018-05-18T08:41:54.034Z,14.80
2018-05-18T08:44:22.481Z,14.90
2018-05-18T08:46:49.879Z,14.70
2018-05-18T08:49:17.377Z,14.30
2018-05-18T08:51:44.874Z,14.20
2018-05-18T08:54:12.872Z,14.40
2018-05-18T08:56:40.383Z,14.50
2018-05-18T08:59:08.624Z,14.30
2018-05-18T09:01:36.108Z,14.30
2018-05-18T09:04:04.390Z,14.20
2018-05-18T09:06:32.648Z,14.30
2018-05-18T09:09:01.628Z,14.20
2018-05-18T09:11:29.135Z,14.20
2018-05-18T09:13:57.378Z,14.80
2018-05-18T09:16:24.879Z,14.80
2018-05-18T09:18:52.393Z,15.00
2018-05-18T09:21:21.537Z,15.30
2018-05-18T09:23:49.010Z,15.30
2018-05-18T09:26:16.496Z,15.40
2018-05-18T09:28:43.965Z,15.30
2018-05-18T09:31:11.477Z,15.40
2018-05-18T09:33:38.951Z,15.30
2018-05-18T09:36:06.425Z,15.50
2018-05-18T09:38:33.922Z,15.70
2018-05-18T09:41:02.162Z,16.00
2018-05-18T09:43:29.667Z,16.00
2018-05-18T09:45:57.140Z,15.90
2018-05-18T09:48:24.633Z,15.80
2018-05-18T09:50:52.865Z,15.80
2018-05-18T09:53:20.400Z,15.80
2018-05-18T09:55:47.876Z,15.70
2018-05-18T09:58:16.161Z,15.90
2018-05-18T10:00:43.746Z,15.80
2018-05-18T10:03:11.933Z,16.00
2018-05-18T10:05:39.424Z,15.90
2018-05-18T10:08:07.697Z,15.90
2018-05-18T10:10:36.032Z,16.10
2018-05-18T10:13:03.494Z,16.10
2018-05-18T10:15:30.983Z,16.30
2018-05-18T10:17:59.431Z,16.20
2018-05-18T10:20:26.957Z,16.20
2018-05-18T10:22:54.432Z,16.30
2018-05-18T10:25:26.701Z,16.60
2018-05-18T10:27:54.191Z,16.60
2018-05-18T10:30:28.667Z,16.80
2018-05-18T10:32:56.230Z,17.00
2018-05-18T10:35:23.651Z,17.20
2018-05-18T10:37:51.135Z,17.30
2018-05-18T10:40:18.653Z,17.30
2018-05-18T10:42:46.132Z,17.30
2018-05-18T10:45:13.685Z,17.40
2018-05-18T10:47:41.106Z,17.30
2018-05-18T10:50:09.361Z,17.00
2018-05-18T10:52:36.835Z,17.00
2018-05-18T10:55:04.354Z,17.10
2018-05-18T10:57:31.827Z,17.40
2018-05-18T10:59:59.342Z,17.40
2018-05-18T11:02:27.590Z,17.50
2018-05-18T11:04:55.071Z,17.50
2018-05-18T11:07:23.339Z,17.50
2018-05-18T11:09:51.616Z,17.60
2018-05-18T11:12:19.861Z,17.80
2018-05-18T11:14:47.343Z,17.70
2018-05-18T11:17:14.827Z,17.60
2018-05-18T11:19:42.320Z,17.60
2018-05-18T11:22:09.796Z,17.70
2018-05-18T11:24:37.277Z,17.80
2018-05-18T11:27:05.549Z,18.30
2018-05-18T11:29:34.745Z,17.90
2018-05-18T11:32:02.260Z,17.80
2018-05-18T11:34:29.757Z,17.60
2018-05-18T11:36:57.228Z,17.60
2018-05-18T11:39:25.494Z,18.00
2018-05-18T11:41:52.984Z,18.00
2018-05-18T11:44:20.472Z,18.00
2018-05-18T11:46:47.986Z,18.10
2018-05-18T11:49:16.224Z,18.40
2018-05-18T11:51:43.780Z,18.40
2018-05-18T11:54:11.261Z,18.70
2018-05-18T11:56:39.491Z,18.90
2018-05-18T11:59:07.040Z,18.90
2018-05-18T12:01:34.623Z,19.00
2018-05-18T12:04:02.353Z,19.10
2018-05-18T12:06:30.706Z,19.10
2018-05-18T12:08:58.272Z,19.30
2018-05-18T12:11:26.529Z,19.70
2018-05-18T12:13:54.808Z,20.20
2018-05-18T12:16:23.080Z,20.70
2018-05-18T12:18:51.351Z,21.00
2018-05-18T12:21:19.220Z,21.00
2018-05-18T12:23:47.479Z,21.30
2018-05-18T12:26:14.973Z,21.30
2018-05-18T12:28:43.219Z,21.40
2018-05-18T12:31:10.690Z,21.40
2018-05-18T12:33:38.933Z,21.30
2018-05-18T12:36:06.451Z,21.20
2018-05-18T12:38:33.935Z,21.50
2018-05-18T12:41:01.433Z,21.90
2018-05-18T12:43:28.903Z,21.80
2018-05-18T12:45:57.151Z,21.20
2018-05-18T12:48:24.620Z,21.20
2018-05-18T12:50:53.104Z,20.80
2018-05-18T12:53:21.387Z,20.80
2018-05-18T12:55:49.641Z,21.00
2018-05-18T12:58:17.126Z,21.00
2018-05-18T13:00:45.480Z,21.20
2018-05-18T13:03:12.957Z,21.20
2018-05-18T13:05:41.240Z,21.10
2018-05-18T13:08:15.007Z,21.10
2018-05-18T13:10:42.591Z,21.00
2018-05-18T13:13:12.541Z,21.10
2018-05-18T13:15:40.298Z,21.10
2018-05-18T13:18:07.838Z,21.10
2018-05-18T13:20:36.074Z,21.30
2018-05-18T13:23:03.616Z,21.30
2018-05-18T13:25:31.102Z,21.20
2018-05-18T13:27:58.580Z,21.30
2018-05-18T13:30:26.979Z,20.70
2018-05-18T13:32:55.227Z,20.50
2018-05-18T13:35:23.019Z,20.50
2018-05-18T13:37:50.521Z,20.20
2018-05-18T13:40:17.989Z,20.10
2018-05-18T13:42:45.486Z,20.30
2018-05-18T13:45:13.147Z,20.90
2018-05-18T13:47:40.522Z,21.00
2018-05-18T13:50:08.028Z,21.40
2018-05-18T13:52:35.533Z,21.70
2018-05-18T13:55:03.597Z,21.70
2018-05-18T13:57:31.100Z,21.30
2018-05-18T13:59:58.586Z,21.20
2018-05-18T14:02:26.062Z,21.30
2018-05-18T14:04:54.343Z,21.00
2018-05-18T14:07:22.236Z,21.00
2018-05-18T14:09:49.739Z,20.60
2018-05-18T14:12:17.225Z,20.50
2018-05-18T14:14:45.584Z,20.40
2018-05-18T14:17:13.874Z,20.50
2018-05-18T14:19:42.144Z,20.30
2018-05-18T14:22:10.432Z,20.40
2018-05-18T14:24:37.951Z,20.40
2018-05-18T14:27:05.435Z,20.30
2018-05-18T14:29:32.917Z,20.40
2018-05-18T14:32:00.413Z,20.30
2018-05-18T14:34:27.891Z,20.20
2018-05-18T14:36:55.377Z,20.10
2018-05-18T14:39:23.064Z,20.10
2018-05-18T14:41:50.564Z,20.10
2018-05-18T14:44:18.032Z,20.10
2018-05-18T14:46:46.305Z,20.50
2018-05-18T14:49:13.808Z,20.50
2018-05-18T14:51:41.327Z,20.60
2018-05-18T14:54:09.571Z,20.50
2018-05-18T14:56:37.108Z,20.50
2018-05-18T14:59:04.722Z,20.50
2018-05-18T15:01:32.976Z,20.20
2018-05-18T15:04:01.245Z,19.80
2018-05-18T15:06:28.750Z,19.80
2018-05-18T15:08:56.254Z,19.60
2018-05-18T15:11:23.838Z,19.40
2018-05-18T15:13:52.202Z,19.20
2018-05-18T15:16:19.753Z,19.20
2018-05-18T15:18:47.199Z,19.20
2018-05-18T15:21:14.680Z,19.20
2018-05-18T15:23:42.209Z,19.20
2018-05-18T15:26:09.759Z,19.20
2018-05-18T15:28:37.339Z,19.20
2018-05-18T15:31:05.561Z,19.20
2018-05-18T15:33:33.849Z,19.20
2018-05-18T15:36:02.085Z,19.30
2018-05-18T15:38:31.081Z,19.30
2018-05-18T15:40:59.346Z,19.50
2018-05-18T15:43:27.198Z,19.50
2018-05-18T15:45:54.703Z,19.50
2018-05-18T15:48:23.009Z,19.60
2018-05-18T15:50:50.560Z,19.60
2018-05-18T15:53:18.067Z,19.60
2018-05-18T15:55:45.559Z,19.60
2018-05-18T16:00:36.120Z,19.40
2018-05-18T16:03:03.601Z,19.40
2018-05-18T16:05:31.152Z,19.40
2018-05-18T16:07:58.629Z,19.20
2018-05-18T16:10:27.151Z,19.00
2018-05-18T16:12:54.692Z,19.00
2018-05-18T16:15:22.293Z,18.90
2018-05-18T16:17:49.779Z,18.80
2018-05-18T16:20:17.549Z,18.70
2018-05-18T16:22:45.083Z,18.70
2018-05-18T16:25:13.399Z,18.30
2018-05-18T16:27:40.899Z,18.30
2018-05-18T16:30:08.393Z,18.20
2018-05-18T16:32:35.880Z,18.20
2018-05-18T16:35:03.362Z,18.20
2018-05-18T16:37:30.868Z,18.10
2018-05-18T16:39:58.357Z,18.10
2018-05-18T16:42:25.851Z,18.00
2018-05-18T16:44:53.359Z,18.00
2018-05-18T16:47:21.635Z,17.90
2018-05-18T16:49:49.890Z,17.90
2018-05-18T16:52:17.386Z,17.90
2018-05-18T16:54:44.923Z,18.00
2018-05-18T16:57:13.263Z,17.80
2018-05-18T16:59:40.806Z,17.80
2018-05-18T17:02:08.333Z,17.80
2018-05-18T17:04:35.839Z,17.80
2018-05-18T17:07:03.339Z,17.80
2018-05-18T17:09:31.611Z,17.80
2018-05-18T17:11:59.873Z,17.90
2018-05-18T17:14:28.161Z,18.00
2018-05-18T17:16:55.669Z,17.90
2018-05-18T17:19:23.220Z,17.90
2018-05-18T17:21:50.714Z,17.90
2018-05-18T17:24:18.322Z,17.90
2018-05-18T17:26:45.821Z,18.00
2018-05-18T17:29:14.365Z,18.10
2018-05-18T17:31:41.911Z,18.10
2018-05-18T17:34:09.490Z,18.10
2018-05-18T17:36:36.989Z,18.10
2018-05-18T17:39:04.499Z,18.10
2018-05-18T17:41:32.059Z,18.10
2018-05-18T17:43:59.649Z,18.10
2018-05-18T17:46:27.192Z,17.90
2018-05-18T17:48:55.310Z,17.80
2018-05-18T17:51:22.731Z,17.80
2018-05-18T17:53:50.206Z,17.80
2018-05-18T17:56:17.724Z,17.80
2018-05-18T17:58:45.195Z,17.80
2018-05-18T18:01:12.689Z,17.80
2018-05-18T18:03:40.197Z,17.70
2018-05-18T18:06:07.716Z,17.60
2018-05-18T18:08:35.981Z,17.40
2018-05-18T18:11:03.471Z,17.40
2018-05-18T18:13:30.985Z,17.40
2018-05-18T18:15:59.987Z,17.40
2018-05-18T18:18:28.256Z,17.40
2018-05-18T18:20:55.741Z,17.40
2018-05-18T18:23:24.051Z,17.30
2018-05-18T18:25:51.616Z,17.20
2018-05-18T18:28:19.176Z,17.10
2018-05-18T18:30:46.672Z,16.90
2018-05-18T18:33:14.164Z,17.00
2018-05-18T18:35:41.695Z,17.00
2018-05-18T18:38:10.235Z,16.90
2018-05-18T18:40:38.073Z,16.90
2018-05-18T18:43:05.581Z,16.80
2018-05-18T18:45:33.881Z,16.80
2018-05-18T18:48:01.710Z,16.80
2018-05-18T18:50:29.996Z,16.70
2018-05-18T18:52:57.775Z,16.70
2018-05-18T18:55:25.454Z,16.60
2018-05-18T18:57:53.916Z,16.60
2018-05-18T19:00:22.488Z,16.60
2018-05-18T19:02:50.019Z,16.60
2018-05-18T19:05:17.542Z,16.60
2018-05-18T19:07:45.826Z,16.50
2018-05-18T19:10:14.067Z,16.40
2018-05-18T19:12:41.953Z,16.40
2018-05-18T19:15:10.212Z,16.30
2018-05-18T19:17:38.493Z,16.30
2018-05-18T19:20:06.081Z,16.30
2018-05-18T19:22:33.642Z,16.30
2018-05-18T19:25:01.145Z,16.20
2018-05-18T19:27:28.645Z,16.10
2018-05-18T19:29:56.901Z,16.10
2018-05-18T19:32:24.744Z,16.00
2018-05-18T19:34:52.236Z,16.00
2018-05-18T19:37:20.552Z,15.90
2018-05-18T19:39:48.169Z,15.90
2018-05-18T19:42:16.509Z,15.80
2018-05-18T19:44:44.063Z,15.80
2018-05-18T19:47:11.678Z,15.80
2018-05-18T19:49:40.171Z,15.70
2018-05-18T19:52:07.867Z,15.70
2018-05-18T19:54:35.648Z,15.80
2018-05-18T19:57:03.410Z,15.80
2018-05-18T19:59:32.857Z,15.60
2018-05-18T20:02:00.951Z,15.60
2018-05-18T20:04:28.634Z,15.60
2018-05-18T20:06:56.496Z,15.60
2018-05-18T20:09:24.125Z,15.60
2018-05-18T20:11:51.721Z,15.40
2018-05-18T20:14:20.359Z,15.40
2018-05-18T20:16:48.157Z,15.40
2018-05-18T20:19:16.009Z,15.40
2018-05-18T20:21:44.020Z,15.50
2018-05-18T20:24:11.525Z,15.40
2018-05-18T20:26:40.109Z,15.30
2018-05-18T20:29:11.669Z,15.30
2018-05-18T20:31:39.276Z,15.20
2018-05-18T20:34:07.367Z,15.20
2018-05-18T20:36:34.946Z,15.10
2018-05-18T20:39:03.488Z,15.00
2018-05-18T20:41:31.172Z,14.90
2018-05-18T20:44:04.867Z,14.90
2018-05-18T20:46:32.809Z,14.90
2018-05-18T20:49:00.526Z,14.80
2018-05-18T20:51:29.010Z,14.70
2018-05-18T20:53:58.011Z,14.70
2018-05-18T20:56:30.849Z,14.70
2018-05-18T20:58:59.067Z,14.80
2018-05-18T21:01:26.710Z,14.80
2018-05-18T21:03:54.366Z,14.70
2018-05-18T21:06:22.074Z,14.60
2018-05-18T21:08:50.057Z,14.60
2018-05-18T21:11:17.782Z,14.50
2018-05-18T21:13:45.707Z,14.50
2018-05-18T21:16:13.411Z,14.40
2018-05-18T21:18:41.189Z,14.50
2018-05-18T21:21:09.305Z,14.50
2018-05-18T21:23:36.812Z,14.30
2018-05-18T21:26:04.449Z,14.30
2018-05-18T21:28:32.773Z,14.20
2018-05-18T21:31:00.243Z,14.10
2018-05-18T21:33:27.748Z,14.30
2018-05-18T21:35:56.030Z,14.10
2018-05-18T21:38:24.355Z,14.00
2018-05-18T21:40:51.880Z,14.00
2018-05-18T21:43:19.366Z,14.00
2018-05-18T21:45:46.854Z,13.90
2018-05-18T21:48:14.349Z,13.90
2018-05-18T21:50:42.147Z,13.80
2018-05-18T21:53:09.605Z,13.80
2018-05-18T21:55:37.255Z,13.90
2018-05-18T21:58:04.754Z,13.90
2018-05-18T22:00:32.245Z,13.80
2018-05-18T22:03:00.477Z,13.80
2018-05-18T22:05:28.143Z,13.70
2018-05-18T22:07:55.757Z,13.70
2018-05-18T22:10:23.316Z,13.70
2018-05-18T22:12:50.821Z,13.50
2018-05-18T22:15:18.373Z,13.40
2018-05-18T22:17:45.949Z,13.50
2018-05-18T22:20:13.616Z,13.50
2018-05-18T22:22:41.941Z,13.60
2018-05-18T22:25:09.633Z,13.50
2018-05-18T22:27:37.133Z,13.50
2018-05-18T22:30:04.679Z,13.40
2018-05-18T22:32:32.192Z,13.40
2018-05-18T22:34:59.727Z,13.40
2018-05-18T22:37:27.475Z,13.40
2018-05-18T22:39:55.135Z,13.30
2018-05-18T22:42:22.913Z,13.20
2018-05-18T22:44:51.301Z,13.30
2018-05-18T22:47:24.238Z,13.20
2018-05-18T22:49:52.093Z,13.10
2018-05-18T22:52:20.375Z,13.10
2018-05-18T22:54:47.858Z,13.10
2018-05-18T22:57:15.376Z,13.00
2018-05-18T22:59:42.975Z,13.00
2018-05-18T23:02:10.510Z,12.80
2018-05-18T23:04:38.322Z,12.90
2018-05-18T23:07:05.801Z,12.80
2018-05-18T23:09:33.292Z,12.90
2018-05-18T23:12:00.766Z,12.70
2018-05-18T23:14:29.071Z,12.70
2018-05-18T23:16:56.564Z,12.70
2018-05-18T23:19:24.071Z,12.50
2018-05-18T23:21:51.647Z,12.50
2018-05-18T23:24:19.128Z,12.60
2018-05-18T23:26:46.626Z,12.50
2018-05-18T23:29:15.239Z,12.50
2018-05-18T23:31:42.815Z,12.50
2018-05-18T23:34:10.286Z,12.40
2018-05-18T23:36:37.777Z,12.50
2018-05-18T23:39:06.027Z,12.30
2018-05-18T23:41:33.691Z,12.30
2018-05-18T23:44:01.274Z,12.40
2018-05-18T23:46:28.750Z,12.30
2018-05-18T23:48:57.142Z,12.20
2018-05-18T23:51:24.671Z,12.20
2018-05-18T23:53:52.939Z,12.10
2018-05-18T23:56:20.468Z,12.10
2018-05-18T23:58:47.972Z,12.20
